Time;durP1;ratioP1;P1;durP2;ratioP2;P2;SDS_P1;SDS_P2;PMS_P1;PMS_P2;Temp;Humidity;BMP_temperature;BMP_pressure;BME280_temperature;BME280_humidity;BME280_pressure;Samples;Min_cycle;Max_cycle;Signal;HPM_P1;HPM_P2
2023/10/11 00:00:44;;;;;;;6.93;1.80;;;16.70;99.90;;;;;;5072196;28;20434;-77
2023/10/11 00:03:28;;;;;;;6.82;1.77;;;16.60;99.90;;;;;;5071701;28;20029;-77
2023/10/11 00:05:55;;;;;;;4.80;1.67;;;16.60;99.90;;;;;;5071653;28;20528;-78
2023/10/11 00:08:29;;;;;;;5.20;1.77;;;16.50;99.90;;;;;;5072125;28;20074;-76
2023/10/11 00:10:58;;;;;;;5.68;1.75;;;16.40;99.90;;;;;;5071591;28;20029;-83
2023/10/11 00:13:37;;;;;;;7.63;2.08;;;16.30;99.90;;;;;;5072240;28;20442;-82
2023/10/11 00:16:09;;;;;;;4.85;2.00;;;16.20;99.90;;;;;;5071387;28;20021;-79
2023/10/11 00:18:40;;;;;;;4.45;1.90;;;16.10;99.90;;;;;;5071351;28;20032;-79
2023/10/11 00:21:15;;;;;;;5.40;1.90;;;16.10;99.90;;;;;;5053111;28;20114;-79
2023/10/11 00:23:48;;;;;;;5.85;1.63;;;16.00;99.90;;;;;;5071670;28;20386;-79
2023/10/11 00:26:18;;;;;;;7.45;1.83;;;16.00;99.90;;;;;;5071246;28;20029;-80
2023/10/11 00:28:44;;;;;;;6.22;1.88;;;15.90;99.90;;;;;;5071706;28;20032;-79
2023/10/11 00:31:18;;;;;;;3.20;1.35;;;15.90;99.90;;;;;;5071164;28;20179;-79
2023/10/11 00:33:45;;;;;;;6.07;2.10;;;15.90;99.90;;;;;;5071705;28;20033;-79
2023/10/11 00:36:11;;;;;;;5.03;2.22;;;15.90;99.90;;;;;;5070936;28;20021;-79
2023/10/11 00:38:46;;;;;;;6.40;2.28;;;15.90;99.90;;;;;;5071522;28;20032;-79
2023/10/11 00:41:12;;;;;;;5.18;1.77;;;15.90;99.90;;;;;;5070951;28;20025;-80
2023/10/11 00:43:55;;;;;;;4.65;1.80;;;15.90;99.90;;;;;;5071602;28;20048;-79
2023/10/11 00:46:27;;;;;;;4.85;1.75;;;15.90;99.90;;;;;;5071580;28;20059;-79
2023/10/11 00:49:08;;;;;;;6.30;2.55;;;15.80;99.90;;;;;;5071017;28;20032;-79
2023/10/11 00:51:36;;;;;;;5.88;2.10;;;15.80;99.90;;;;;;5071417;28;20105;-79
2023/10/11 00:54:04;;;;;;;7.30;2.30;;;15.80;99.90;;;;;;5070493;28;20039;-78
2023/10/11 00:56:34;;;;;;;3.20;2.30;;;15.80;99.90;;;;;;5071428;28;20021;-78
2023/10/11 00:59:11;;;;;;;8.77;2.30;;;15.80;99.90;;;;;;5070399;28;20036;-79
2023/10/11 01:01:42;;;;;;;7.65;2.67;;;15.80;99.90;;;;;;5071503;28;20060;-79
2023/10/11 01:04:09;;;;;;;7.43;2.80;;;15.80;99.90;;;;;;5052807;28;20418;-79
2023/10/11 01:06:35;;;;;;;5.90;2.75;;;15.80;99.90;;;;;;5071138;28;20077;-78
2023/10/11 01:09:14;;;;;;;7.90;2.38;;;15.70;99.90;;;;;;5070918;28;20107;-79
2023/10/11 01:11:40;;;;;;;9.00;2.38;;;15.80;99.90;;;;;;5071355;28;20543;-78
2023/10/11 01:14:08;;;;;;;6.93;2.80;;;15.80;99.90;;;;;;5070462;28;20328;-78
2023/10/11 01:16:35;;;;;;;3.70;1.90;;;15.80;99.90;;;;;;5071393;28;20035;-79
2023/10/11 01:19:07;;;;;;;7.82;2.80;;;15.80;99.90;;;;;;5070267;28;20068;-79
2023/10/11 01:21:34;;;;;;;7.47;2.60;;;15.70;99.90;;;;;;5071434;28;20040;-78
2023/10/11 01:24:00;;;;;;;8.82;2.65;;;15.80;99.90;;;;;;5070082;28;20028;-78
2023/10/11 01:26:27;;;;;;;7.28;2.38;;;15.70;99.90;;;;;;5070261;28;20441;-79
2023/10/11 01:28:56;;;;;;;6.95;2.28;;;15.80;99.90;;;;;;5070796;28;20037;-80
2023/10/11 01:31:22;;;;;;;7.00;2.50;;;15.70;99.90;;;;;;5070345;28;20393;-79
2023/10/11 01:33:49;;;;;;;6.75;2.58;;;15.80;99.90;;;;;;5070701;28;20094;-79
2023/10/11 01:36:18;;;;;;;7.57;2.67;;;15.80;99.90;;;;;;5070429;28;20028;-79
2023/10/11 01:38:46;;;;;;;11.55;3.05;;;15.70;99.90;;;;;;5071571;28;20086;-81
2023/10/11 01:41:19;;;;;;;8.57;2.80;;;15.70;99.90;;;;;;5071060;28;20040;-79
2023/10/11 01:43:49;;;;;;;8.98;2.75;;;15.70;99.90;;;;;;5072543;28;20024;-78
2023/10/11 01:46:35;;;;;;;8.25;3.00;;;15.70;99.90;;;;;;5070960;28;20089;-79
2023/10/11 01:49:01;;;;;;;9.48;2.80;;;15.70;99.90;;;;;;5070191;28;20025;-80
2023/10/11 01:51:28;;;;;;;8.07;2.70;;;15.80;99.90;;;;;;5072816;28;20064;-80
2023/10/11 01:53:53;;;;;;;8.77;3.40;;;15.70;99.90;;;;;;5074548;28;20059;-79
2023/10/11 01:56:23;;;;;;;4.93;2.30;;;15.70;99.90;;;;;;5070778;28;20020;-79
2023/10/11 01:58:50;;;;;;;7.28;2.88;;;15.70;99.90;;;;;;5070565;28;20103;-79
2023/10/11 02:01:26;;;;;;;10.23;3.13;;;15.70;99.90;;;;;;5070418;28;20116;-80
2023/10/11 02:03:56;;;;;;;8.07;2.63;;;15.70;99.90;;;;;;5055055;28;20028;-79
2023/10/11 02:06:23;;;;;;;16.60;3.08;;;15.70;99.90;;;;;;5072564;28;20024;-80
2023/10/11 02:08:50;;;;;;;8.27;2.72;;;15.70;99.90;;;;;;5053833;28;20036;-79
2023/10/11 02:11:17;;;;;;;5.75;2.67;;;15.70;99.90;;;;;;5074043;28;20151;-79
2023/10/11 02:13:43;;;;;;;7.93;3.08;;;15.70;99.90;;;;;;5074444;28;20033;-81
2023/10/11 02:16:10;;;;;;;8.55;2.65;;;15.70;99.90;;;;;;5074212;28;20028;-80
2023/10/11 02:18:36;;;;;;;7.20;2.55;;;15.70;99.90;;;;;;5070470;28;20111;-79
2023/10/11 02:21:06;;;;;;;5.32;1.90;;;15.70;99.90;;;;;;5053393;28;20392;-79
2023/10/11 02:23:51;;;;;;;5.95;2.42;;;15.70;99.90;;;;;;5071001;28;20032;-78
2023/10/11 02:26:18;;;;;;;5.30;2.60;;;15.70;99.90;;;;;;5072225;28;20025;-79
2023/10/11 02:28:45;;;;;;;8.57;2.70;;;15.70;99.90;;;;;;5070499;28;20032;-78
2023/10/11 02:31:19;;;;;;;8.55;2.70;;;15.60;99.90;;;;;;5070058;28;20125;-78
2023/10/11 02:33:46;;;;;;;8.48;2.78;;;15.60;99.90;;;;;;5072510;28;20033;-78
2023/10/11 02:36:18;;;;;;;8.30;3.20;;;15.60;99.90;;;;;;5073869;28;20052;-78
2023/10/11 02:38:50;;;;;;;7.50;2.60;;;15.50;99.90;;;;;;5053165;28;20181;-78
2023/10/11 02:41:21;;;;;;;8.05;2.72;;;15.50;99.90;;;;;;5074182;28;20043;-77
2023/10/11 02:43:49;;;;;;;5.03;3.25;;;15.50;99.90;;;;;;5073933;28;20029;-78
2023/10/11 02:46:16;;;;;;;9.57;2.70;;;15.50;99.90;;;;;;5073355;28;20506;-79
2023/10/11 02:48:46;;;;;;;7.10;3.15;;;15.50;99.90;;;;;;5074154;28;20025;-79
2023/10/11 02:51:17;;;;;;;9.38;3.35;;;15.50;99.90;;;;;;5074089;28;20193;-79
2023/10/11 02:53:46;;;;;;;7.10;2.53;;;15.40;99.90;;;;;;5074676;28;20128;-78
2023/10/11 02:56:14;;;;;;;7.22;2.50;;;15.40;99.90;;;;;;5073477;28;20443;-78
2023/10/11 02:58:39;;;;;;;7.15;2.95;;;15.40;99.90;;;;;;5073682;28;20044;-78
2023/10/11 03:01:14;;;;;;;7.53;2.70;;;15.40;99.90;;;;;;5073980;28;20033;-78
2023/10/11 03:03:43;;;;;;;6.38;2.92;;;15.40;99.90;;;;;;5073899;28;20029;-78
2023/10/11 03:06:10;;;;;;;6.70;2.67;;;15.40;99.90;;;;;;5075109;28;20031;-76
2023/10/11 03:08:37;;;;;;;7.32;3.03;;;15.30;99.90;;;;;;5057861;28;20043;-78
2023/10/11 03:11:08;;;;;;;4.60;2.40;;;15.30;99.90;;;;;;5076469;28;20459;-78
2023/10/11 03:13:41;;;;;;;6.10;2.90;;;15.30;99.90;;;;;;5058009;28;20035;-77
2023/10/11 03:16:16;;;;;;;5.82;2.60;;;15.30;99.90;;;;;;5073160;28;20024;-79
2023/10/11 03:18:46;;;;;;;7.90;3.15;;;15.30;99.90;;;;;;5076821;28;20481;-78
2023/10/11 03:21:21;;;;;;;4.85;2.50;;;15.40;99.90;;;;;;5059844;28;20029;-79
2023/10/11 03:23:54;;;;;;;7.47;2.40;;;15.40;99.90;;;;;;5077769;28;20032;-78
2023/10/11 03:26:31;;;;;;;5.50;2.20;;;15.40;99.90;;;;;;5073753;28;20024;-79
2023/10/11 03:29:04;;;;;;;3.67;2.03;;;15.40;99.90;;;;;;5074341;28;20040;-78
2023/10/11 03:31:34;;;;;;;4.90;2.25;;;15.40;99.90;;;;;;5074225;28;20048;-79
2023/10/11 03:34:10;;;;;;;5.60;2.38;;;15.40;99.90;;;;;;5073363;28;20024;-78
2023/10/11 03:36:52;;;;;;;7.25;2.67;;;15.50;99.90;;;;;;5072995;28;20032;-78
2023/10/11 03:39:39;;;;;;;4.85;2.40;;;15.50;99.90;;;;;;5072033;28;20037;-78
2023/10/11 03:44:40;;;;;;;5.65;2.00;;;15.50;99.90;;;;;;5072518;28;20032;-78
2023/10/11 03:47:09;;;;;;;6.80;2.25;;;15.50;99.90;;;;;;5072002;28;20546;-79
2023/10/11 03:52:22;;;;;;;;;;;15.60;99.90;;;;;;5072789;28;20401;-79
2023/10/11 03:54:54;;;;;;;7.03;2.50;;;15.60;99.90;;;;;;5072333;28;20363;-78
2023/10/11 03:57:20;;;;;;;3.65;1.70;;;15.60;99.90;;;;;;5071633;28;20036;-79
2023/10/11 03:59:53;;;;;;;4.55;2.15;;;15.70;99.90;;;;;;5072173;28;20020;-78
2023/10/11 04:02:19;;;;;;;;;;;15.70;99.90;;;;;;5071936;28;20035;-80
2023/10/11 04:04:49;;;;;;;3.45;1.83;;;15.70;99.90;;;;;;5071920;28;19953;-79
2023/10/11 04:07:18;;;;;;;6.53;2.45;;;15.70;99.90;;;;;;5071774;28;20035;-79
2023/10/11 04:09:47;;;;;;;6.18;1.88;;;15.70;99.90;;;;;;5072689;28;20087;-79
2023/10/11 04:12:14;;;;;;;6.40;1.83;;;15.70;99.90;;;;;;5074241;28;20040;-79
2023/10/11 04:14:44;;;;;;;2.35;1.60;;;15.70;99.90;;;;;;5071480;28;20040;-79
2023/10/11 04:17:25;;;;;;;4.03;1.98;;;15.60;99.90;;;;;;5070964;28;20064;-80
2023/10/11 04:20:40;;;;;;;4.05;1.80;;;15.70;99.90;;;;;;5071844;28;20044;-79
2023/10/11 04:23:09;;;;;;;2.78;1.70;;;15.60;99.90;;;;;;5060645;28;20102;-78
2023/10/11 04:25:38;;;;;;;4.75;1.70;;;15.70;99.90;;;;;;5071175;28;20037;-80
2023/10/11 04:28:06;;;;;;;4.28;1.88;;;15.70;99.90;;;;;;5071289;28;20056;-80
2023/10/11 04:30:44;;;;;;;3.00;1.67;;;15.70;99.90;;;;;;5070743;28;20309;-79
2023/10/11 04:33:22;;;;;;;1.88;1.15;;;15.70;99.90;;;;;;5070973;28;20116;-81
2023/10/11 04:39:19;;;;;;;0.57;0.20;;;15.20;99.90;;;;;;5072540;28;20075;-87
2023/10/11 04:41:51;;;;;;;0.30;0.10;;;15.00;99.90;;;;;;5059921;28;20028;-87
2023/10/11 04:44:17;;;;;;;1.35;0.22;;;14.70;99.90;;;;;;5053815;28;20035;-83
2023/10/11 04:46:57;;;;;;;0.45;0.10;;;14.50;99.90;;;;;;5053233;28;20025;-81
2023/10/11 04:49:30;;;;;;;1.13;0.10;;;14.40;99.90;;;;;;5070850;28;20386;-80
2023/10/11 04:51:57;;;;;;;0.73;0.32;;;14.20;99.90;;;;;;5071313;28;20060;-79
2023/10/11 04:54:36;;;;;;;2.38;0.10;;;14.10;99.90;;;;;;5070286;28;20090;-79
2023/10/11 04:57:07;;;;;;;1.60;0.20;;;14.00;99.90;;;;;;5070941;28;20020;-79
2023/10/11 05:02:02;;;;;;;1.35;0.20;;;13.90;99.90;;;;;;5070094;28;20028;-78
2023/10/11 05:04:30;;;;;;;0.10;0.00;;;13.80;99.90;;;;;;5070319;28;20093;-78
2023/10/11 05:06:56;;;;;;;0.10;0.00;;;13.80;99.90;;;;;;5070767;28;20424;-78
2023/10/11 05:09:29;;;;;;;2.47;0.20;;;13.70;99.90;;;;;;5070139;28;20028;-77
2023/10/11 05:12:08;;;;;;;0.88;0.10;;;13.60;99.90;;;;;;5070727;28;20032;-78
2023/10/11 05:28:07;;;;;;;0.40;0.20;;;13.40;99.90;;;;;;5070611;28;20516;-78
2023/10/11 05:30:34;;;;;;;0.17;0.17;;;13.40;99.90;;;;;;5069969;28;20025;-78
2023/10/11 05:52:13;;;;;;;1.17;0.30;;;13.30;99.90;;;;;;5070765;28;20055;-81
2023/10/11 05:54:40;;;;;;;0.38;0.30;;;13.30;99.90;;;;;;5069797;28;20028;-81
2023/10/11 05:57:06;;;;;;;1.67;0.40;;;13.30;99.90;;;;;;5070280;28;20025;-81
2023/10/11 05:59:35;;;;;;;0.40;0.13;;;13.20;99.90;;;;;;5051621;28;20123;-82
2023/10/11 06:02:22;;;;;;;1.15;0.25;;;13.10;99.90;;;;;;5070630;28;20031;-81
2023/10/11 06:04:47;;;;;;;0.80;0.20;;;13.10;99.90;;;;;;5069838;28;20032;-81
2023/10/11 06:07:15;;;;;;;0.50;0.38;;;13.00;99.90;;;;;;5051925;28;20036;-80
2023/10/11 06:09:52;;;;;;;0.30;0.30;;;12.90;99.90;;;;;;5070210;28;20041;-80
2023/10/11 06:12:29;;;;;;;0.95;0.32;;;13.00;99.90;;;;;;5070103;28;20025;-79
2023/10/11 06:14:56;;;;;;;0.40;0.40;;;13.00;99.90;;;;;;5074695;28;20105;-80
2023/10/11 06:17:48;;;;;;;2.40;1.55;;;13.00;99.90;;;;;;5074063;28;20083;-79
2023/10/11 06:20:26;;;;;;;1.17;0.82;;;13.00;99.90;;;;;;5074585;28;20484;-78
2023/10/11 06:22:56;;;;;;;2.28;1.73;;;12.90;99.90;;;;;;5074333;28;20037;-78
2023/10/11 06:28:30;;;;;;;2.88;1.00;;;12.80;99.90;;;;;;4972378;28;20089;-78
2023/10/11 06:31:00;;;;;;;2.22;1.20;;;12.70;99.90;;;;;;5058027;28;20036;-78
2023/10/11 06:33:27;;;;;;;3.85;1.30;;;12.50;99.90;;;;;;5073408;28;20024;-78
2023/10/11 06:35:53;;;;;;;4.45;1.50;;;12.60;99.90;;;;;;5055247;28;20028;-78
2023/10/11 06:38:21;;;;;;;4.25;1.17;;;12.50;99.90;;;;;;5073165;28;20036;-79
2023/10/11 06:40:54;;;;;;;4.93;1.58;;;12.40;99.90;;;;;;5073708;28;20075;-78
2023/10/11 06:43:20;;;;;;;3.67;1.20;;;12.50;99.90;;;;;;5073174;28;20086;-79
2023/10/11 06:45:49;;;;;;;11.20;2.10;;;12.50;99.90;;;;;;5073656;28;20025;-79
2023/10/11 06:48:15;;;;;;;8.93;2.45;;;12.30;99.90;;;;;;5073769;28;20067;-78
2023/10/11 06:50:41;;;;;;;12.75;2.50;;;12.30;99.90;;;;;;5073129;28;20052;-77
2023/10/11 06:53:09;;;;;;;17.58;3.03;;;12.30;99.90;;;;;;5073363;28;20035;-78
2023/10/11 06:55:36;;;;;;;14.13;3.22;;;12.10;99.90;;;;;;5054853;28;20121;-78
2023/10/11 06:58:25;;;;;;;13.27;3.10;;;12.10;99.90;;;;;;5073268;28;20064;-78
2023/10/11 07:00:50;;;;;;;23.48;3.97;;;12.00;99.90;;;;;;5072675;28;20040;-77
2023/10/11 07:05:59;;;;;;;19.60;3.95;;;11.80;99.90;;;;;;5073465;28;20089;-77
2023/10/11 07:08:48;;;;;;;19.38;4.18;;;11.70;99.90;;;;;;5072441;28;20368;-79
2023/10/11 07:11:36;;;;;;;22.88;4.10;;;11.70;99.90;;;;;;5073224;28;20029;-79
2023/10/11 07:14:05;;;;;;;22.67;4.53;;;11.70;99.90;;;;;;5072537;28;20471;-79
2023/10/11 07:16:31;;;;;;;23.42;4.85;;;11.60;99.90;;;;;;5072219;28;20115;-79
2023/10/11 07:18:58;;;;;;;20.35;4.15;;;11.60;99.90;;;;;;5072838;28;20184;-79
2023/10/11 07:24:31;;;;;;;21.27;4.13;;;11.60;99.90;;;;;;5072405;28;20074;-80
2023/10/11 07:27:26;;;;;;;21.88;4.10;;;11.60;99.90;;;;;;5054604;28;20024;-77
2023/10/11 07:29:54;;;;;;;15.50;4.07;;;11.60;99.90;;;;;;5072709;28;20036;-79
2023/10/11 07:32:21;;;;;;;25.73;4.63;;;11.50;99.90;;;;;;5072120;28;20040;-79
2023/10/11 07:34:54;;;;;;;21.63;5.13;;;11.60;99.90;;;;;;5072176;28;20070;-79
2023/10/11 07:37:26;;;;;;;19.98;4.47;;;11.70;99.90;;;;;;5072016;28;20089;-80
2023/10/11 07:39:59;;;;;;;18.40;4.67;;;11.70;99.90;;;;;;5052611;28;20024;-81
2023/10/11 07:42:28;;;;;;;26.38;3.95;;;11.80;99.90;;;;;;5035285;28;20024;-80
2023/10/11 07:44:54;;;;;;;20.65;4.43;;;11.70;99.90;;;;;;5052451;28;20616;-81
2023/10/11 07:47:25;;;;;;;19.20;4.18;;;11.60;99.90;;;;;;5052169;28;20052;-81
2023/10/11 07:49:54;;;;;;;19.58;4.55;;;11.70;99.90;;;;;;5052705;28;20506;-80
2023/10/11 07:52:22;;;;;;;19.25;4.18;;;11.60;99.90;;;;;;5060775;28;20094;-80
2023/10/11 07:54:48;;;;;;;19.88;3.72;;;11.70;99.90;;;;;;5072008;28;20060;-80
2023/10/11 07:57:15;;;;;;;19.67;3.47;;;11.80;99.90;;;;;;5071346;28;20476;-81
2023/10/11 07:59:45;;;;;;;17.95;3.58;;;11.80;99.90;;;;;;5071118;28;20420;-81
2023/10/11 08:02:31;;;;;;;17.75;4.45;;;11.80;99.90;;;;;;5072134;28;20492;-80
2023/10/11 08:04:57;;;;;;;14.05;3.85;;;11.70;99.90;;;;;;5071507;28;20020;-80
2023/10/11 08:07:23;;;;;;;19.60;3.63;;;11.70;99.90;;;;;;5072189;28;20056;-81
2023/10/11 08:09:53;;;;;;;19.88;4.18;;;11.80;99.90;;;;;;5071140;28;20024;-80
2023/10/11 08:12:22;;;;;;;20.77;4.22;;;11.90;99.90;;;;;;5053444;28;20093;-80
2023/10/11 08:14:48;;;;;;;18.42;3.72;;;11.90;99.90;;;;;;5071328;28;20074;-80
2023/10/11 08:17:19;;;;;;;13.90;3.13;;;11.90;99.90;;;;;;5071344;28;20478;-79
2023/10/11 08:19:48;;;;;;;14.00;4.03;;;11.90;99.90;;;;;;5070710;28;20072;-80
2023/10/11 08:22:15;;;;;;;18.42;3.78;;;11.90;99.90;;;;;;5053385;28;20063;-80
2023/10/11 08:24:46;;;;;;;17.38;3.90;;;12.00;99.90;;;;;;5070858;28;20482;-80
2023/10/11 08:27:13;;;;;;;15.02;3.83;;;12.00;99.90;;;;;;5071834;28;20103;-79
2023/10/11 08:29:42;;;;;;;16.65;4.38;;;11.90;99.90;;;;;;5070975;28;20102;-79
2023/10/11 08:32:12;;;;;;;17.20;4.28;;;12.00;99.90;;;;;;5071280;28;20073;-79
2023/10/11 08:34:46;;;;;;;20.38;4.10;;;12.00;99.90;;;;;;5065570;28;20047;-79
2023/10/11 08:37:14;;;;;;;21.02;4.40;;;12.00;99.90;;;;;;5070675;28;20464;-79
2023/10/11 08:39:46;;;;;;;18.83;4.32;;;12.00;99.90;;;;;;5070198;28;20036;-80
2023/10/11 08:42:14;;;;;;;13.93;4.00;;;12.10;99.90;;;;;;5070880;28;20043;-80
2023/10/11 08:44:45;;;;;;;22.50;3.83;;;12.10;99.90;;;;;;5070558;28;20035;-80
2023/10/11 08:47:16;;;;;;;19.77;4.25;;;12.10;99.90;;;;;;5070992;28;20036;-78
2023/10/11 08:49:46;;;;;;;20.50;4.28;;;12.10;99.90;;;;;;5070319;28;20040;-80
2023/10/11 08:52:17;;;;;;;19.27;4.65;;;12.00;99.90;;;;;;5071331;28;20048;-80
2023/10/11 08:54:44;;;;;;;23.13;5.07;;;12.00;99.90;;;;;;5070316;28;20032;-81
2023/10/11 08:57:13;;;;;;;18.02;4.07;;;12.00;99.90;;;;;;5071054;28;20036;-81
2023/10/11 09:00:29;;;;;;;20.17;4.25;;;11.90;99.90;;;;;;5052236;28;20037;-81
2023/10/11 09:02:55;;;;;;;17.45;4.50;;;11.90;99.90;;;;;;5063588;28;20127;-81
2023/10/11 09:05:32;;;;;;;23.17;4.60;;;11.90;99.90;;;;;;5070870;28;20391;-81
2023/10/11 09:08:02;;;;;;;17.00;3.70;;;12.00;99.90;;;;;;5071393;28;20372;-81
2023/10/11 09:10:29;;;;;;;21.00;4.50;;;12.00;99.90;;;;;;5072681;28;20107;-81
2023/10/11 09:12:57;;;;;;;27.45;5.07;;;12.00;99.90;;;;;;5071874;28;20033;-83
2023/10/11 09:15:43;;;;;;;20.00;4.90;;;12.00;99.90;;;;;;5072061;28;20025;-80
2023/10/11 09:18:17;;;;;;;22.40;4.57;;;12.00;99.90;;;;;;5070231;28;20051;-81
2023/10/11 09:20:49;;;;;;;22.98;4.22;;;11.90;99.90;;;;;;5052585;28;20120;-83
2023/10/11 09:23:20;;;;;;;19.50;4.82;;;12.00;99.90;;;;;;5071055;28;20039;-83
2023/10/11 09:25:59;;;;;;;18.80;4.43;;;12.00;99.90;;;;;;5052535;28;20134;-81
2023/10/11 09:28:28;;;;;;;25.13;4.70;;;12.00;99.90;;;;;;5071234;28;20044;-81
2023/10/11 09:31:20;;;;;;;30.52;4.25;;;11.90;99.90;;;;;;5070874;28;20035;-81
2023/10/11 09:33:52;;;;;;;23.38;4.95;;;11.80;99.90;;;;;;5070395;28;20020;-82
2023/10/11 09:36:24;;;;;;;22.30;4.95;;;11.80;99.90;;;;;;5071341;28;20159;-82
2023/10/11 09:38:56;;;;;;;;;;;11.80;99.90;;;;;;5070303;28;20790;-82
2023/10/11 09:41:44;;;;;;;23.13;4.53;;;11.70;99.90;;;;;;5071025;28;19904;-82
2023/10/11 09:44:14;;;;;;;19.45;4.88;;;11.70;99.90;;;;;;5070859;28;20028;-82
2023/10/11 09:46:43;;;;;;;20.92;4.85;;;11.80;99.90;;;;;;5070786;28;20043;-84
2023/10/11 09:49:15;;;;;;;20.48;4.43;;;11.80;99.90;;;;;;5070408;28;20340;-83
2023/10/11 09:51:43;;;;;;;21.85;4.80;;;11.90;99.90;;;;;;5070768;28;20471;-83
2023/10/11 09:54:12;;;;;;;20.17;4.95;;;11.90;99.90;;;;;;5070666;28;20471;-84
2023/10/11 09:57:03;;;;;;;23.83;4.95;;;12.00;99.90;;;;;;5070451;28;20021;-84
2023/10/11 09:59:43;;;;;;;18.73;4.05;;;12.00;99.90;;;;;;5070375;28;20033;-84
2023/10/11 10:02:14;;;;;;;19.83;4.22;;;12.00;99.90;;;;;;5052661;28;20024;-83
2023/10/11 10:04:52;;;;;;;25.70;4.90;;;12.00;99.90;;;;;;5069538;28;20390;-82
2023/10/11 10:07:26;;;;;;;20.45;4.35;;;12.00;99.90;;;;;;5069837;28;20036;-82
2023/10/11 10:10:00;;;;;;;21.52;4.35;;;12.00;99.90;;;;;;5069059;28;20025;-82
2023/10/11 10:12:47;;;;;;;22.60;4.43;;;12.00;99.90;;;;;;5069739;28;20100;-83
2023/10/11 10:15:28;;;;;;;21.70;4.65;;;12.00;99.90;;;;;;5051516;28;20127;-83
2023/10/11 10:17:56;;;;;;;19.85;4.55;;;12.00;99.90;;;;;;5069317;28;20034;-84
2023/10/11 10:20:44;;;;;;;19.08;4.78;;;12.00;99.90;;;;;;5069441;28;20414;-88
2023/10/11 10:23:20;;;;;;;21.88;5.03;;;12.00;99.90;;;;;;5052817;28;20036;-88
2023/10/11 10:26:15;;;;;;;21.42;4.65;;;12.10;99.90;;;;;;5053127;28;20028;-90
2023/10/11 10:28:42;;;;;;;19.80;4.05;;;12.00;99.90;;;;;;5019967;28;20033;-84
2023/10/11 10:31:13;;;;;;;21.27;5.03;;;12.00;99.90;;;;;;5066230;28;20033;-82
2023/10/11 10:33:40;;;;;;;16.98;4.25;;;12.10;99.90;;;;;;5068782;28;20463;-82
2023/10/11 10:36:21;;;;;;;24.15;4.90;;;12.10;99.90;;;;;;5051230;28;20375;-81
2023/10/11 10:39:24;;;;;;;24.65;5.22;;;12.00;99.90;;;;;;5068466;28;20024;-81
2023/10/11 10:42:12;;;;;;;15.32;3.97;;;11.90;99.90;;;;;;5066438;28;20035;-81
2023/10/11 10:44:51;;;;;;;20.55;4.47;;;12.00;99.90;;;;;;5066511;28;20033;-81
2023/10/11 10:47:28;;;;;;;23.73;4.60;;;12.00;99.90;;;;;;5067254;28;20020;-81
2023/10/11 10:49:55;;;;;;;15.73;4.03;;;11.80;99.90;;;;;;5068606;28;20113;-81
2023/10/11 10:52:27;;;;;;;22.73;4.82;;;11.80;99.90;;;;;;5068819;28;20044;-80
2023/10/11 10:55:04;;;;;;;19.38;4.68;;;11.80;99.90;;;;;;5068413;28;20042;-81
2023/10/11 10:57:41;;;;;;;23.20;4.68;;;11.90;99.90;;;;;;5052289;28;20468;-81
2023/10/11 11:00:20;;;;;;;19.08;4.45;;;12.00;99.90;;;;;;5070081;28;20467;-82
2023/10/11 11:02:46;;;;;;;21.02;4.28;;;12.10;99.90;;;;;;5055031;28;20423;-86
2023/10/11 11:05:14;;;;;;;17.25;4.32;;;12.10;99.90;;;;;;5073121;28;20115;-83
2023/10/11 11:07:41;;;;;;;18.42;4.82;;;12.20;99.90;;;;;;5054191;28;20029;-85
2023/10/11 11:10:07;;;;;;;18.50;3.78;;;12.30;99.90;;;;;;5054742;28;20482;-82
2023/10/11 11:12:33;;;;;;;16.15;3.97;;;12.30;99.90;;;;;;5071763;28;20036;-82
2023/10/11 11:14:59;;;;;;;17.30;4.18;;;12.30;99.90;;;;;;5069803;28;20037;-81
2023/10/11 11:17:46;;;;;;;17.08;4.18;;;12.30;99.90;;;;;;5072327;28;20048;-81
2023/10/11 11:20:27;;;;;;;23.30;4.60;;;12.40;99.90;;;;;;5072618;28;20060;-80
2023/10/11 11:22:54;;;;;;;15.85;3.97;;;12.40;99.90;;;;;;5070220;28;20016;-79
2023/10/11 11:28:01;;;;;;;18.75;4.03;;;12.40;99.90;;;;;;5069889;28;20527;-80
2023/10/11 11:30:33;;;;;;;16.70;4.20;;;12.40;99.90;;;;;;5072052;28;20044;-80
2023/10/11 11:33:13;;;;;;;19.38;4.55;;;12.30;99.90;;;;;;5069994;28;20168;-78
2023/10/11 11:35:52;;;;;;;16.00;3.80;;;12.20;99.90;;;;;;5069365;28;20117;-78
2023/10/11 11:38:23;;;;;;;21.65;4.45;;;12.20;99.90;;;;;;5069646;28;20033;-79
2023/10/11 11:41:14;;;;;;;19.23;4.13;;;12.20;99.90;;;;;;5071482;28;20025;-79
2023/10/11 11:43:40;;;;;;;17.85;3.33;;;12.20;99.90;;;;;;5071181;28;20039;-79
2023/10/11 11:46:06;;;;;;;18.15;4.38;;;12.20;99.90;;;;;;5072382;28;20475;-79
2023/10/11 11:48:41;;;;;;;15.90;4.10;;;12.20;99.90;;;;;;5072275;28;20123;-79
2023/10/11 11:51:13;;;;;;;22.55;4.03;;;12.30;99.90;;;;;;5071262;28;20467;-79
2023/10/11 11:53:43;;;;;;;13.25;3.83;;;12.10;99.90;;;;;;5071503;28;20443;-81
2023/10/11 11:56:11;;;;;;;15.57;3.85;;;12.00;99.90;;;;;;5071967;28;20035;-79
2023/10/11 11:58:46;;;;;;;18.48;3.97;;;12.10;99.90;;;;;;5070937;28;20041;-80
2023/10/11 12:01:19;;;;;;;17.98;4.38;;;12.10;99.90;;;;;;5071694;28;20043;-88
2023/10/11 12:03:54;;;;;;;19.15;4.50;;;12.10;99.90;;;;;;5072946;28;20402;-83
2023/10/11 12:06:22;;;;;;;18.95;3.88;;;11.90;99.90;;;;;;5054496;28;20059;-82
2023/10/11 12:08:57;;;;;;;17.52;4.32;;;11.90;99.90;;;;;;5071574;28;20032;-81
2023/10/11 12:11:30;;;;;;;20.92;4.00;;;11.90;99.90;;;;;;5071739;28;20036;-81
2023/10/11 12:14:00;;;;;;;;;;;11.90;99.90;;;;;;5072260;28;20021;-80
2023/10/11 12:16:27;;;;;;;23.67;4.25;;;11.90;99.90;;;;;;5072023;28;19908;-81
2023/10/11 12:18:59;;;;;;;15.48;4.28;;;11.90;99.90;;;;;;5071208;28;20062;-81
2023/10/11 12:21:28;;;;;;;20.65;4.60;;;11.80;99.90;;;;;;5071872;28;20064;-82
2023/10/11 12:23:54;;;;;;;15.23;3.30;;;11.70;99.90;;;;;;5053227;28;20090;-82
2023/10/11 12:26:20;;;;;;;17.58;4.55;;;11.80;99.90;;;;;;5071101;28;20036;-82
2023/10/11 12:28:47;;;;;;;19.35;3.83;;;11.80;99.90;;;;;;5071175;28;20036;-82
2023/10/11 12:31:13;;;;;;;16.52;4.15;;;11.80;99.90;;;;;;5053433;28;20098;-81
2023/10/11 12:33:39;;;;;;;13.20;4.35;;;11.80;99.90;;;;;;5071313;28;20032;-81
2023/10/11 12:36:06;;;;;;;17.02;4.22;;;11.70;99.90;;;;;;5071628;28;20187;-81
2023/10/11 12:38:39;;;;;;;16.42;4.13;;;11.70;99.90;;;;;;5071450;28;20037;-80
2023/10/11 12:41:06;;;;;;;21.83;4.20;;;11.70;99.90;;;;;;5071380;28;20058;-81
2023/10/11 12:43:32;;;;;;;21.33;4.80;;;11.80;99.90;;;;;;5071412;28;20025;-81
2023/10/11 12:46:01;;;;;;;16.33;3.95;;;11.70;99.90;;;;;;5071292;28;20990;-80
2023/10/11 12:48:27;;;;;;;17.75;4.60;;;11.70;99.90;;;;;;5071362;28;20081;-79
2023/10/11 12:50:53;;;;;;;15.13;3.88;;;11.70;99.90;;;;;;5070690;28;20045;-81
2023/10/11 12:53:19;;;;;;;12.93;3.47;;;11.70;99.90;;;;;;5071039;28;20035;-80
2023/10/11 12:55:49;;;;;;;15.45;3.67;;;11.80;99.90;;;;;;5070630;28;20031;-80
2023/10/11 12:58:15;;;;;;;16.02;4.18;;;11.70;99.90;;;;;;5071332;28;20178;-80
2023/10/11 13:00:51;;;;;;;11.07;3.53;;;11.80;99.90;;;;;;5070772;28;20032;-81
2023/10/11 13:03:29;;;;;;;13.90;3.63;;;11.90;99.90;;;;;;5071283;28;20036;-81
2023/10/11 13:05:56;;;;;;;15.82;3.67;;;11.90;99.90;;;;;;5070746;28;20390;-82
2023/10/11 13:08:26;;;;;;;20.75;4.28;;;12.00;99.90;;;;;;5071137;28;20044;-83
2023/10/11 13:10:53;;;;;;;14.98;4.05;;;12.10;99.90;;;;;;5071058;28;20138;-84
2023/10/11 13:13:21;;;;;;;18.20;4.15;;;12.10;99.90;;;;;;5071133;28;20062;-82
2023/10/11 13:15:58;;;;;;;17.67;3.80;;;12.20;99.90;;;;;;5070377;28;20107;-82
2023/10/11 13:18:45;;;;;;;18.58;4.35;;;12.20;99.90;;;;;;5070989;28;20043;-81
2023/10/11 13:21:11;;;;;;;14.10;3.17;;;12.20;99.90;;;;;;5070993;28;20033;-81
2023/10/11 13:23:39;;;;;;;16.58;3.50;;;12.20;99.90;;;;;;5069600;28;20428;-80
2023/10/11 13:26:09;;;;;;;19.40;3.72;;;12.20;99.90;;;;;;5070287;28;20059;-80
2023/10/11 13:28:40;;;;;;;13.73;3.80;;;12.20;99.90;;;;;;5070103;28;20060;-80
2023/10/11 13:31:09;;;;;;;17.52;3.63;;;12.10;99.90;;;;;;5070049;28;20029;-80
2023/10/11 13:33:35;;;;;;;14.57;3.00;;;12.10;99.90;;;;;;5070344;28;20044;-80
2023/10/11 13:36:05;;;;;;;16.10;4.07;;;12.10;99.90;;;;;;5069650;28;20097;-79
2023/10/11 13:38:31;;;;;;;14.65;3.67;;;12.10;99.90;;;;;;5070079;28;20067;-79
2023/10/11 13:41:01;;;;;;;8.45;2.92;;;12.10;99.90;;;;;;5069223;28;20412;-80
2023/10/11 13:43:27;;;;;;;18.38;4.47;;;12.10;99.90;;;;;;5070062;28;20024;-80
2023/10/11 13:45:57;;;;;;;13.20;3.80;;;12.20;99.90;;;;;;5069337;28;20490;-80
2023/10/11 13:48:27;;;;;;;17.00;4.13;;;12.20;99.90;;;;;;5069389;28;20174;-80
2023/10/11 13:50:54;;;;;;;11.52;3.40;;;12.30;99.90;;;;;;5069174;28;20084;-81
2023/10/11 13:53:23;;;;;;;14.15;3.60;;;12.30;99.90;;;;;;5069962;28;20103;-81
2023/10/11 13:55:51;;;;;;;11.00;3.42;;;12.30;99.90;;;;;;5069735;28;20066;-81
2023/10/11 13:58:17;;;;;;;15.18;5.05;;;12.40;99.90;;;;;;5070218;28;20044;-80
2023/10/11 14:06:00;;;;;;;14.45;4.25;;;12.50;99.90;;;;;;5070234;28;20021;-80